sensor_id;sensor_type;location;lat;lon;timestamp;P1;P2;P0
26720;PMS1003;15950;51.112;6.966;2023-05-15T00:02:23;003;002;
26720;PMS1003;15950;51.112;6.966;2023-05-15T00:05:23;004;003;
26720;PMS1003;15950;51.112;6.966;2023-05-15T00:08:23;003;002;
26720;PMS1003;15950;51.112;6.966;2023-05-15T00:11:24;003;002;
26720;PMS1003;15950;51.112;6.966;2023-05-15T00:14:23;003;003;
26720;PMS1003;15950;51.112;6.966;2023-05-15T00:17:24;003;003;
26720;PMS1003;15950;51.112;6.966;2023-05-15T00:20:23;001;001;
26720;PMS1003;15950;51.112;6.966;2023-05-15T00:23:23;002;002;
26720;PMS1003;15950;51.112;6.966;2023-05-15T00:26:23;002;001;
26720;PMS1003;15950;51.112;6.966;2023-05-15T00:29:23;003;002;
26720;PMS1003;15950;51.112;6.966;2023-05-15T00:32:23;005;003;
26720;PMS1003;15950;51.112;6.966;2023-05-15T00:35:23;003;002;
26720;PMS1003;15950;51.112;6.966;2023-05-15T00:38:23;002;002;
26720;PMS1003;15950;51.112;6.966;2023-05-15T00:41:23;002;002;
26720;PMS1003;15950;51.112;6.966;2023-05-15T00:44:23;003;002;
26720;PMS1003;15950;51.112;6.966;2023-05-15T00:47:23;003;002;
26720;PMS1003;15950;51.112;6.966;2023-05-15T00:50:23;003;002;
26720;PMS1003;15950;51.112;6.966;2023-05-15T00:53:23;002;001;
26720;PMS1003;15950;51.112;6.966;2023-05-15T00:56:23;002;001;
26720;PMS1003;15950;51.112;6.966;2023-05-15T00:59:24;002;001;
26720;PMS1003;15950;51.112;6.966;2023-05-15T01:02:23;004;003;
26720;PMS1003;15950;51.112;6.966;2023-05-15T01:05:23;002;001;
26720;PMS1003;15950;51.112;6.966;2023-05-15T01:08:42;004;003;
26720;PMS1003;15950;51.112;6.966;2023-05-15T01:11:24;002;001;
26720;PMS1003;15950;51.112;6.966;2023-05-15T01:14:23;002;001;
26720;PMS1003;15950;51.112;6.966;2023-05-15T01:17:23;003;002;
26720;PMS1003;15950;51.112;6.966;2023-05-15T01:20:23;005;003;
26720;PMS1003;15950;51.112;6.966;2023-05-15T01:29:26;001;001;
26720;PMS1003;15950;51.112;6.966;2023-05-15T01:32:27;003;002;
26720;PMS1003;15950;51.112;6.966;2023-05-15T01:44:27;002;001;
26720;PMS1003;15950;51.112;6.966;2023-05-15T01:47:28;004;003;
26720;PMS1003;15950;51.112;6.966;2023-05-15T01:50:23;002;001;
26720;PMS1003;15950;51.112;6.966;2023-05-15T01:53:23;005;003;
26720;PMS1003;15950;51.112;6.966;2023-05-15T01:56:23;005;004;
26720;PMS1003;15950;51.112;6.966;2023-05-15T01:59:23;004;003;
26720;PMS1003;15950;51.112;6.966;2023-05-15T02:02:23;005;003;
26720;PMS1003;15950;51.112;6.966;2023-05-15T02:05:23;001;001;
26720;PMS1003;15950;51.112;6.966;2023-05-15T02:08:23;004;003;
26720;PMS1003;15950;51.112;6.966;2023-05-15T02:11:23;003;002;
26720;PMS1003;15950;51.112;6.966;2023-05-15T02:14:23;005;003;
26720;PMS1003;15950;51.112;6.966;2023-05-15T02:17:23;004;004;
26720;PMS1003;15950;51.112;6.966;2023-05-15T02:20:23;003;002;
26720;PMS1003;15950;51.112;6.966;2023-05-15T02:23:23;005;003;
26720;PMS1003;15950;51.112;6.966;2023-05-15T02:38:25;006;005;
26720;PMS1003;15950;51.112;6.966;2023-05-15T02:41:23;012;008;
26720;PMS1003;15950;51.112;6.966;2023-05-15T02:44:23;020;016;
26720;PMS1003;15950;51.112;6.966;2023-05-15T02:47:23;033;024;
26720;PMS1003;15950;51.112;6.966;2023-05-15T02:50:23;034;025;
26720;PMS1003;15950;51.112;6.966;2023-05-15T02:53:23;027;019;
26720;PMS1003;15950;51.112;6.966;2023-05-15T02:56:23;031;024;
26720;PMS1003;15950;51.112;6.966;2023-05-15T02:59:23;027;022;
26720;PMS1003;15950;51.112;6.966;2023-05-15T03:02:23;029;023;
26720;PMS1003;15950;51.112;6.966;2023-05-15T03:05:23;026;020;
26720;PMS1003;15950;51.112;6.966;2023-05-15T03:08:23;024;018;
26720;PMS1003;15950;51.112;6.966;2023-05-15T03:11:23;024;017;
26720;PMS1003;15950;51.112;6.966;2023-05-15T03:14:23;030;023;
26720;PMS1003;15950;51.112;6.966;2023-05-15T03:17:23;022;016;
26720;PMS1003;15950;51.112;6.966;2023-05-15T03:20:23;027;019;
26720;PMS1003;15950;51.112;6.966;2023-05-15T03:23:23;026;018;
26720;PMS1003;15950;51.112;6.966;2023-05-15T03:26:23;030;021;
26720;PMS1003;15950;51.112;6.966;2023-05-15T03:29:23;028;022;
26720;PMS1003;15950;51.112;6.966;2023-05-15T03:32:23;027;019;
26720;PMS1003;15950;51.112;6.966;2023-05-15T03:35:23;025;019;
26720;PMS1003;15950;51.112;6.966;2023-05-15T03:38:23;027;019;
26720;PMS1003;15950;51.112;6.966;2023-05-15T03:41:23;028;024;
26720;PMS1003;15950;51.112;6.966;2023-05-15T03:44:23;026;018;
26720;PMS1003;15950;51.112;6.966;2023-05-15T03:47:23;028;024;
26720;PMS1003;15950;51.112;6.966;2023-05-15T03:50:23;028;020;
26720;PMS1003;15950;51.112;6.966;2023-05-15T03:53:23;030;023;
26720;PMS1003;15950;51.112;6.966;2023-05-15T03:56:23;032;023;
26720;PMS1003;15950;51.112;6.966;2023-05-15T03:59:23;031;022;
26720;PMS1003;15950;51.112;6.966;2023-05-15T04:02:23;030;021;
26720;PMS1003;15950;51.112;6.966;2023-05-15T04:05:23;035;025;
26720;PMS1003;15950;51.112;6.966;2023-05-15T04:08:23;038;027;
26720;PMS1003;15950;51.112;6.966;2023-05-15T04:11:23;033;028;
26720;PMS1003;15950;51.112;6.966;2023-05-15T04:14:23;037;026;
26720;PMS1003;15950;51.112;6.966;2023-05-15T04:17:23;042;030;
26720;PMS1003;15950;51.112;6.966;2023-05-15T04:20:23;042;030;
26720;PMS1003;15950;51.112;6.966;2023-05-15T04:23:23;041;030;
26720;PMS1003;15950;51.112;6.966;2023-05-15T04:26:23;042;030;
26720;PMS1003;15950;51.112;6.966;2023-05-15T04:29:23;044;031;
26720;PMS1003;15950;51.112;6.966;2023-05-15T04:32:23;046;036;
26720;PMS1003;15950;51.112;6.966;2023-05-15T04:35:23;051;036;
26720;PMS1003;15950;51.112;6.966;2023-05-15T04:38:23;059;042;
26720;PMS1003;15950;51.112;6.966;2023-05-15T04:41:23;052;037;
26720;PMS1003;15950;51.112;6.966;2023-05-15T04:44:23;047;033;
26720;PMS1003;15950;51.112;6.966;2023-05-15T04:47:23;048;035;
26720;PMS1003;15950;51.112;6.966;2023-05-15T04:50:23;049;035;
26720;PMS1003;15950;51.112;6.966;2023-05-15T04:53:23;045;033;
26720;PMS1003;15950;51.112;6.966;2023-05-15T04:56:23;050;037;
26720;PMS1003;15950;51.112;6.966;2023-05-15T04:59:23;049;036;
26720;PMS1003;15950;51.112;6.966;2023-05-15T05:02:23;046;034;
26720;PMS1003;15950;51.112;6.966;2023-05-15T05:05:23;049;035;
26720;PMS1003;15950;51.112;6.966;2023-05-15T05:08:23;050;039;
26720;PMS1003;15950;51.112;6.966;2023-05-15T05:11:23;048;034;
26720;PMS1003;15950;51.112;6.966;2023-05-15T05:14:23;041;032;
26720;PMS1003;15950;51.112;6.966;2023-05-15T05:17:23;053;043;
26720;PMS1003;15950;51.112;6.966;2023-05-15T05:20:23;045;036;
26720;PMS1003;15950;51.112;6.966;2023-05-15T05:23:23;045;035;
26720;PMS1003;15950;51.112;6.966;2023-05-15T05:26:23;042;033;
26720;PMS1003;15950;51.112;6.966;2023-05-15T05:29:23;049;039;
26720;PMS1003;15950;51.112;6.966;2023-05-15T05:32:23;055;039;
26720;PMS1003;15950;51.112;6.966;2023-05-15T05:35:23;051;036;
26720;PMS1003;15950;51.112;6.966;2023-05-15T05:38:23;051;040;
26720;PMS1003;15950;51.112;6.966;2023-05-15T05:41:23;048;034;
26720;PMS1003;15950;51.112;6.966;2023-05-15T05:44:23;056;040;
26720;PMS1003;15950;51.112;6.966;2023-05-15T05:47:23;057;044;
26720;PMS1003;15950;51.112;6.966;2023-05-15T05:50:23;053;038;
26720;PMS1003;15950;51.112;6.966;2023-05-15T05:53:23;059;042;
26720;PMS1003;15950;51.112;6.966;2023-05-15T05:56:23;051;036;
26720;PMS1003;15950;51.112;6.966;2023-05-15T05:59:23;055;040;
26720;PMS1003;15950;51.112;6.966;2023-05-15T06:02:23;050;041;
26720;PMS1003;15950;51.112;6.966;2023-05-15T06:05:26;057;041;
26720;PMS1003;15950;51.112;6.966;2023-05-15T06:08:23;052;043;
26720;PMS1003;15950;51.112;6.966;2023-05-15T06:11:23;054;038;
26720;PMS1003;15950;51.112;6.966;2023-05-15T06:14:23;046;035;
26720;PMS1003;15950;51.112;6.966;2023-05-15T06:17:23;044;034;
26720;PMS1003;15950;51.112;6.966;2023-05-15T06:20:23;038;027;
26720;PMS1003;15950;51.112;6.966;2023-05-15T06:23:23;038;027;
26720;PMS1003;15950;51.112;6.966;2023-05-15T06:26:23;037;026;
26720;PMS1003;15950;51.112;6.966;2023-05-15T06:29:23;038;027;
26720;PMS1003;15950;51.112;6.966;2023-05-15T06:32:23;040;030;
26720;PMS1003;15950;51.112;6.966;2023-05-15T06:35:23;039;033;
26720;PMS1003;15950;51.112;6.966;2023-05-15T06:38:23;041;029;
26720;PMS1003;15950;51.112;6.966;2023-05-15T06:41:23;037;029;
26720;PMS1003;15950;51.112;6.966;2023-05-15T06:44:23;034;026;
26720;PMS1003;15950;51.112;6.966;2023-05-15T06:47:23;038;027;
26720;PMS1003;15950;51.112;6.966;2023-05-15T06:50:23;037;029;
26720;PMS1003;15950;51.112;6.966;2023-05-15T06:53:23;036;031;
26720;PMS1003;15950;51.112;6.966;2023-05-15T06:56:23;048;035;
26720;PMS1003;15950;51.112;6.966;2023-05-15T06:59:23;047;033;
26720;PMS1003;15950;51.112;6.966;2023-05-15T07:02:23;041;029;
26720;PMS1003;15950;51.112;6.966;2023-05-15T07:05:23;042;031;
26720;PMS1003;15950;51.112;6.966;2023-05-15T07:08:23;045;033;
26720;PMS1003;15950;51.112;6.966;2023-05-15T07:11:23;044;037;
26720;PMS1003;15950;51.112;6.966;2023-05-15T07:14:23;044;031;
26720;PMS1003;15950;51.112;6.966;2023-05-15T07:17:23;044;031;
26720;PMS1003;15950;51.112;6.966;2023-05-15T07:20:23;043;031;
26720;PMS1003;15950;51.112;6.966;2023-05-15T07:23:23;042;030;
26720;PMS1003;15950;51.112;6.966;2023-05-15T07:26:23;041;032;
26720;PMS1003;15950;51.112;6.966;2023-05-15T07:29:23;042;035;
26720;PMS1003;15950;51.112;6.966;2023-05-15T07:32:23;047;033;
26720;PMS1003;15950;51.112;6.966;2023-05-15T07:35:23;046;035;
26720;PMS1003;15950;51.112;6.966;2023-05-15T07:38:23;038;027;
26720;PMS1003;15950;51.112;6.966;2023-05-15T07:41:23;043;034;
26720;PMS1003;15950;51.112;6.966;2023-05-15T07:44:23;040;028;
26720;PMS1003;15950;51.112;6.966;2023-05-15T07:47:23;041;030;
26720;PMS1003;15950;51.112;6.966;2023-05-15T07:50:23;039;033;
26720;PMS1003;15950;51.112;6.966;2023-05-15T07:53:23;042;030;
26720;PMS1003;15950;51.112;6.966;2023-05-15T07:56:23;038;028;
26720;PMS1003;15950;51.112;6.966;2023-05-15T07:59:23;038;028;
26720;PMS1003;15950;51.112;6.966;2023-05-15T08:02:23;038;031;
26720;PMS1003;15950;51.112;6.966;2023-05-15T08:05:23;048;034;
26720;PMS1003;15950;51.112;6.966;2023-05-15T08:08:23;043;032;
26720;PMS1003;15950;51.112;6.966;2023-05-15T08:11:23;042;032;
26720;PMS1003;15950;51.112;6.966;2023-05-15T08:14:23;043;031;
26720;PMS1003;15950;51.112;6.966;2023-05-15T08:17:23;037;029;
26720;PMS1003;15950;51.112;6.966;2023-05-15T08:20:23;041;030;
26720;PMS1003;15950;51.112;6.966;2023-05-15T08:23:23;040;032;
26720;PMS1003;15950;51.112;6.966;2023-05-15T08:26:23;041;029;
26720;PMS1003;15950;51.112;6.966;2023-05-15T08:29:23;038;030;
26720;PMS1003;15950;51.112;6.966;2023-05-15T08:32:23;040;029;
26720;PMS1003;15950;51.112;6.966;2023-05-15T08:35:23;038;032;
26720;PMS1003;15950;51.112;6.966;2023-05-15T08:38:23;038;027;
26720;PMS1003;15950;51.112;6.966;2023-05-15T08:41:33;040;029;
26720;PMS1003;15950;51.112;6.966;2023-05-15T08:44:23;032;024;
26720;PMS1003;15950;51.112;6.966;2023-05-15T08:47:23;036;026;
26720;PMS1003;15950;51.112;6.966;2023-05-15T08:50:23;033;025;
26720;PMS1003;15950;51.112;6.966;2023-05-15T08:53:23;035;025;
26720;PMS1003;15950;51.112;6.966;2023-05-15T08:56:23;034;024;
26720;PMS1003;15950;51.112;6.966;2023-05-15T08:59:23;031;025;
26720;PMS1003;15950;51.112;6.966;2023-05-15T09:02:23;034;025;
26720;PMS1003;15950;51.112;6.966;2023-05-15T09:05:23;039;029;
26720;PMS1003;15950;51.112;6.966;2023-05-15T09:08:23;035;026;
26720;PMS1003;15950;51.112;6.966;2023-05-15T09:11:23;033;025;
26720;PMS1003;15950;51.112;6.966;2023-05-15T09:14:23;037;026;
26720;PMS1003;15950;51.112;6.966;2023-05-15T09:17:23;034;024;
26720;PMS1003;15950;51.112;6.966;2023-05-15T09:23:24;028;023;
26720;PMS1003;15950;51.112;6.966;2023-05-15T09:26:23;040;032;
26720;PMS1003;15950;51.112;6.966;2023-05-15T09:29:23;033;023;
26720;PMS1003;15950;51.112;6.966;2023-05-15T09:32:25;038;028;
26720;PMS1003;15950;51.112;6.966;2023-05-15T09:38:23;033;023;
26720;PMS1003;15950;51.112;6.966;2023-05-15T09:41:24;028;022;
26720;PMS1003;15950;51.112;6.966;2023-05-15T09:44:24;034;024;
26720;PMS1003;15950;51.112;6.966;2023-05-15T09:47:23;034;024;
26720;PMS1003;15950;51.112;6.966;2023-05-15T09:50:24;033;024;
26720;PMS1003;15950;51.112;6.966;2023-05-15T09:53:23;027;021;
26720;PMS1003;15950;51.112;6.966;2023-05-15T09:56:23;027;022;
26720;PMS1003;15950;51.112;6.966;2023-05-15T09:59:23;034;024;
26720;PMS1003;15950;51.112;6.966;2023-05-15T10:05:26;031;022;
26720;PMS1003;15950;51.112;6.966;2023-05-15T10:08:26;023;020;
26720;PMS1003;15950;51.112;6.966;2023-05-15T10:11:23;028;020;
26720;PMS1003;15950;51.112;6.966;2023-05-15T10:14:23;027;022;
26720;PMS1003;15950;51.112;6.966;2023-05-15T10:17:23;028;020;
26720;PMS1003;15950;51.112;6.966;2023-05-15T10:20:23;030;022;
26720;PMS1003;15950;51.112;6.966;2023-05-15T10:23:23;028;021;
26720;PMS1003;15950;51.112;6.966;2023-05-15T10:26:24;028;021;
26720;PMS1003;15950;51.112;6.966;2023-05-15T10:29:23;029;023;
26720;PMS1003;15950;51.112;6.966;2023-05-15T10:32:23;028;022;
26720;PMS1003;15950;51.112;6.966;2023-05-15T10:35:23;032;023;
26720;PMS1003;15950;51.112;6.966;2023-05-15T10:38:23;027;022;
26720;PMS1003;15950;51.112;6.966;2023-05-15T10:41:23;026;018;
26720;PMS1003;15950;51.112;6.966;2023-05-15T10:44:23;027;021;
26720;PMS1003;15950;51.112;6.966;2023-05-15T10:47:23;027;019;
26720;PMS1003;15950;51.112;6.966;2023-05-15T10:50:23;031;022;
26720;PMS1003;15950;51.112;6.966;2023-05-15T10:53:23;024;019;
26720;PMS1003;15950;51.112;6.966;2023-05-15T11:02:26;026;018;
26720;PMS1003;15950;51.112;6.966;2023-05-15T11:05:23;022;017;
26720;PMS1003;15950;51.112;6.966;2023-05-15T11:08:23;022;017;
26720;PMS1003;15950;51.112;6.966;2023-05-15T11:14:23;023;019;
26720;PMS1003;15950;51.112;6.966;2023-05-15T11:17:23;024;018;
26720;PMS1003;15950;51.112;6.966;2023-05-15T11:20:30;024;018;
26720;PMS1003;15950;51.112;6.966;2023-05-15T11:23:23;025;019;
26720;PMS1003;15950;51.112;6.966;2023-05-15T11:26:31;024;019;
26720;PMS1003;15950;51.112;6.966;2023-05-15T11:29:23;021;015;
26720;PMS1003;15950;51.112;6.966;2023-05-15T11:38:23;016;013;
26720;PMS1003;15950;51.112;6.966;2023-05-15T11:41:23;024;017;
26720;PMS1003;15950;51.112;6.966;2023-05-15T11:44:23;019;013;
26720;PMS1003;15950;51.112;6.966;2023-05-15T11:47:23;023;017;
26720;PMS1003;15950;51.112;6.966;2023-05-15T11:50:23;020;015;
26720;PMS1003;15950;51.112;6.966;2023-05-15T11:53:23;016;014;
26720;PMS1003;15950;51.112;6.966;2023-05-15T11:56:24;019;015;
26720;PMS1003;15950;51.112;6.966;2023-05-15T11:59:25;023;017;
26720;PMS1003;15950;51.112;6.966;2023-05-15T12:02:23;020;016;
26720;PMS1003;15950;51.112;6.966;2023-05-15T12:05:23;019;013;
26720;PMS1003;15950;51.112;6.966;2023-05-15T12:08:23;019;013;
26720;PMS1003;15950;51.112;6.966;2023-05-15T12:11:23;015;013;
26720;PMS1003;15950;51.112;6.966;2023-05-15T12:14:26;023;017;
26720;PMS1003;15950;51.112;6.966;2023-05-15T12:17:23;017;012;
26720;PMS1003;15950;51.112;6.966;2023-05-15T12:20:23;017;012;
26720;PMS1003;15950;51.112;6.966;2023-05-15T12:23:23;019;015;
26720;PMS1003;15950;51.112;6.966;2023-05-15T12:26:23;021;015;
26720;PMS1003;15950;51.112;6.966;2023-05-15T12:29:23;019;016;
26720;PMS1003;15950;51.112;6.966;2023-05-15T12:32:23;021;015;
26720;PMS1003;15950;51.112;6.966;2023-05-15T12:35:23;021;015;
26720;PMS1003;15950;51.112;6.966;2023-05-15T12:38:23;017;015;
26720;PMS1003;15950;51.112;6.966;2023-05-15T12:41:26;019;013;
26720;PMS1003;15950;51.112;6.966;2023-05-15T12:44:24;013;012;
26720;PMS1003;15950;51.112;6.966;2023-05-15T12:47:24;016;011;
26720;PMS1003;15950;51.112;6.966;2023-05-15T12:50:24;007;006;
26720;PMS1003;15950;51.112;6.966;2023-05-15T12:53:23;008;006;
26720;PMS1003;15950;51.112;6.966;2023-05-15T12:56:23;010;007;
26720;PMS1003;15950;51.112;6.966;2023-05-15T12:59:23;012;011;
26720;PMS1003;15950;51.112;6.966;2023-05-15T13:02:23;011;010;
26720;PMS1003;15950;51.112;6.966;2023-05-15T13:05:23;014;010;
26720;PMS1003;15950;51.112;6.966;2023-05-15T13:08:23;007;005;
26720;PMS1003;15950;51.112;6.966;2023-05-15T13:11:23;009;007;
26720;PMS1003;15950;51.112;6.966;2023-05-15T13:14:23;013;011;
26720;PMS1003;15950;51.112;6.966;2023-05-15T13:17:23;013;010;
26720;PMS1003;15950;51.112;6.966;2023-05-15T13:20:23;009;007;
26720;PMS1003;15950;51.112;6.966;2023-05-15T13:23:23;011;008;
26720;PMS1003;15950;51.112;6.966;2023-05-15T13:26:23;011;011;
26720;PMS1003;15950;51.112;6.966;2023-05-15T13:29:23;012;009;
26720;PMS1003;15950;51.112;6.966;2023-05-15T13:32:23;017;012;
26720;PMS1003;15950;51.112;6.966;2023-05-15T13:35:23;013;009;
26720;PMS1003;15950;51.112;6.966;2023-05-15T13:38:23;013;009;
26720;PMS1003;15950;51.112;6.966;2023-05-15T13:41:23;013;009;
26720;PMS1003;15950;51.112;6.966;2023-05-15T13:44:23;011;008;
26720;PMS1003;15950;51.112;6.966;2023-05-15T13:47:23;014;012;
26720;PMS1003;15950;51.112;6.966;2023-05-15T13:50:23;015;012;
26720;PMS1003;15950;51.112;6.966;2023-05-15T13:53:23;012;008;
26720;PMS1003;15950;51.112;6.966;2023-05-15T13:56:23;013;009;
26720;PMS1003;15950;51.112;6.966;2023-05-15T13:59:23;014;010;
26720;PMS1003;15950;51.112;6.966;2023-05-15T14:02:23;013;009;
26720;PMS1003;15950;51.112;6.966;2023-05-15T14:05:23;012;011;
26720;PMS1003;15950;51.112;6.966;2023-05-15T14:08:23;019;014;
26720;PMS1003;15950;51.112;6.966;2023-05-15T14:11:23;013;011;
26720;PMS1003;15950;51.112;6.966;2023-05-15T14:14:23;015;012;
26720;PMS1003;15950;51.112;6.966;2023-05-15T14:17:23;020;016;
26720;PMS1003;15950;51.112;6.966;2023-05-15T14:20:23;021;015;
26720;PMS1003;15950;51.112;6.966;2023-05-15T14:23:23;019;016;
26720;PMS1003;15950;51.112;6.966;2023-05-15T14:26:23;021;015;
26720;PMS1003;15950;51.112;6.966;2023-05-15T14:29:23;018;014;
26720;PMS1003;15950;51.112;6.966;2023-05-15T14:32:23;019;016;
26720;PMS1003;15950;51.112;6.966;2023-05-15T14:35:23;017;014;
26720;PMS1003;15950;51.112;6.966;2023-05-15T14:38:23;019;014;
26720;PMS1003;15950;51.112;6.966;2023-05-15T14:41:23;017;012;
26720;PMS1003;15950;51.112;6.966;2023-05-15T14:44:23;018;015;
26720;PMS1003;15950;51.112;6.966;2023-05-15T14:47:23;019;015;
26720;PMS1003;15950;51.112;6.966;2023-05-15T14:50:23;014;012;
26720;PMS1003;15950;51.112;6.966;2023-05-15T14:53:23;016;011;
26720;PMS1003;15950;51.112;6.966;2023-05-15T14:56:23;017;013;
26720;PMS1003;15950;51.112;6.966;2023-05-15T14:59:23;016;011;
26720;PMS1003;15950;51.112;6.966;2023-05-15T15:02:23;017;012;
26720;PMS1003;15950;51.112;6.966;2023-05-15T15:05:23;016;013;
26720;PMS1003;15950;51.112;6.966;2023-05-15T15:08:23;018;013;
26720;PMS1003;15950;51.112;6.966;2023-05-15T15:11:23;021;015;
26720;PMS1003;15950;51.112;6.966;2023-05-15T15:14:23;014;010;
26720;PMS1003;15950;51.112;6.966;2023-05-15T15:17:23;014;011;
26720;PMS1003;15950;51.112;6.966;2023-05-15T15:20:23;014;011;
26720;PMS1003;15950;51.112;6.966;2023-05-15T15:23:23;010;008;
26720;PMS1003;15950;51.112;6.966;2023-05-15T15:26:23;013;011;
26720;PMS1003;15950;51.112;6.966;2023-05-15T15:29:23;011;008;
26720;PMS1003;15950;51.112;6.966;2023-05-15T15:32:23;012;009;
26720;PMS1003;15950;51.112;6.966;2023-05-15T15:35:23;012;010;
26720;PMS1003;15950;51.112;6.966;2023-05-15T15:38:23;017;013;
26720;PMS1003;15950;51.112;6.966;2023-05-15T15:41:23;017;013;
26720;PMS1003;15950;51.112;6.966;2023-05-15T15:44:23;024;019;
26720;PMS1003;15950;51.112;6.966;2023-05-15T15:47:23;025;018;
26720;PMS1003;15950;51.112;6.966;2023-05-15T15:50:23;021;015;
26720;PMS1003;15950;51.112;6.966;2023-05-15T15:53:23;021;020;
26720;PMS1003;15950;51.112;6.966;2023-05-15T15:56:23;023;019;
26720;PMS1003;15950;51.112;6.966;2023-05-15T15:59:23;025;020;
26720;PMS1003;15950;51.112;6.966;2023-05-15T16:02:23;025;018;
26720;PMS1003;15950;51.112;6.966;2023-05-15T16:05:23;024;018;
26720;PMS1003;15950;51.112;6.966;2023-05-15T16:08:23;025;020;
26720;PMS1003;15950;51.112;6.966;2023-05-15T16:11:23;023;020;
26720;PMS1003;15950;51.112;6.966;2023-05-15T16:14:23;027;019;
26720;PMS1003;15950;51.112;6.966;2023-05-15T16:17:23;024;020;
26720;PMS1003;15950;51.112;6.966;2023-05-15T16:20:23;027;020;
26720;PMS1003;15950;51.112;6.966;2023-05-15T16:23:23;026;020;
26720;PMS1003;15950;51.112;6.966;2023-05-15T16:26:23;022;019;
26720;PMS1003;15950;51.112;6.966;2023-05-15T16:29:23;023;016;
26720;PMS1003;15950;51.112;6.966;2023-05-15T16:32:23;026;018;
26720;PMS1003;15950;51.112;6.966;2023-05-15T16:35:23;024;019;
26720;PMS1003;15950;51.112;6.966;2023-05-15T16:38:23;024;019;
26720;PMS1003;15950;51.112;6.966;2023-05-15T16:41:23;025;020;
26720;PMS1003;15950;51.112;6.966;2023-05-15T16:44:23;028;020;
26720;PMS1003;15950;51.112;6.966;2023-05-15T16:47:23;024;019;
26720;PMS1003;15950;51.112;6.966;2023-05-15T16:50:23;027;019;
26720;PMS1003;15950;51.112;6.966;2023-05-15T16:53:23;021;017;
26720;PMS1003;15950;51.112;6.966;2023-05-15T16:56:23;024;017;
26720;PMS1003;15950;51.112;6.966;2023-05-15T16:59:23;021;017;
26720;PMS1003;15950;51.112;6.966;2023-05-15T17:02:23;021;017;
26720;PMS1003;15950;51.112;6.966;2023-05-15T17:05:23;022;017;
26720;PMS1003;15950;51.112;6.966;2023-05-15T17:08:23;014;011;
26720;PMS1003;15950;51.112;6.966;2023-05-15T17:11:23;014;013;
26720;PMS1003;15950;51.112;6.966;2023-05-15T17:14:23;017;012;
26720;PMS1003;15950;51.112;6.966;2023-05-15T17:17:23;017;014;
26720;PMS1003;15950;51.112;6.966;2023-05-15T17:20:23;019;014;
26720;PMS1003;15950;51.112;6.966;2023-05-15T17:23:23;020;015;
26720;PMS1003;15950;51.112;6.966;2023-05-15T17:26:23;022;019;
26720;PMS1003;15950;51.112;6.966;2023-05-15T17:29:23;022;017;
26720;PMS1003;15950;51.112;6.966;2023-05-15T17:32:23;023;017;
26720;PMS1003;15950;51.112;6.966;2023-05-15T17:35:23;024;017;
26720;PMS1003;15950;51.112;6.966;2023-05-15T17:38:23;024;020;
26720;PMS1003;15950;51.112;6.966;2023-05-15T17:41:23;022;016;
26720;PMS1003;15950;51.112;6.966;2023-05-15T17:44:23;021;017;
26720;PMS1003;15950;51.112;6.966;2023-05-15T17:47:23;024;017;
26720;PMS1003;15950;51.112;6.966;2023-05-15T17:50:23;023;018;
26720;PMS1003;15950;51.112;6.966;2023-05-15T17:53:23;026;020;
26720;PMS1003;15950;51.112;6.966;2023-05-15T17:56:23;022;018;
26720;PMS1003;15950;51.112;6.966;2023-05-15T17:59:23;027;021;
26720;PMS1003;15950;51.112;6.966;2023-05-15T18:02:23;026;021;
26720;PMS1003;15950;51.112;6.966;2023-05-15T18:05:23;025;019;
26720;PMS1003;15950;51.112;6.966;2023-05-15T18:08:23;024;017;
26720;PMS1003;15950;51.112;6.966;2023-05-15T18:11:23;028;020;
26720;PMS1003;15950;51.112;6.966;2023-05-15T18:14:23;027;020;
26720;PMS1003;15950;51.112;6.966;2023-05-15T18:17:23;025;018;
26720;PMS1003;15950;51.112;6.966;2023-05-15T18:20:25;024;018;
26720;PMS1003;15950;51.112;6.966;2023-05-15T18:23:23;020;016;
26720;PMS1003;15950;51.112;6.966;2023-05-15T18:26:23;015;013;
26720;PMS1003;15950;51.112;6.966;2023-05-15T18:29:23;018;014;
26720;PMS1003;15950;51.112;6.966;2023-05-15T18:32:23;017;013;
26720;PMS1003;15950;51.112;6.966;2023-05-15T18:35:23;016;014;
26720;PMS1003;15950;51.112;6.966;2023-05-15T18:38:23;019;014;
26720;PMS1003;15950;51.112;6.966;2023-05-15T18:41:23;017;013;
26720;PMS1003;15950;51.112;6.966;2023-05-15T18:44:23;017;016;
26720;PMS1003;15950;51.112;6.966;2023-05-15T18:47:23;015;012;
26720;PMS1003;15950;51.112;6.966;2023-05-15T18:50:23;015;013;
26720;PMS1003;15950;51.112;6.966;2023-05-15T18:53:23;015;011;
26720;PMS1003;15950;51.112;6.966;2023-05-15T18:56:23;011;008;
26720;PMS1003;15950;51.112;6.966;2023-05-15T18:59:23;016;013;
26720;PMS1003;15950;51.112;6.966;2023-05-15T19:02:23;013;012;
26720;PMS1003;15950;51.112;6.966;2023-05-15T19:05:23;015;012;
26720;PMS1003;15950;51.112;6.966;2023-05-15T19:08:23;012;010;
26720;PMS1003;15950;51.112;6.966;2023-05-15T19:11:23;010;010;
26720;PMS1003;15950;51.112;6.966;2023-05-15T19:14:23;011;009;
26720;PMS1003;15950;51.112;6.966;2023-05-15T19:17:23;013;010;
26720;PMS1003;15950;51.112;6.966;2023-05-15T19:20:23;012;010;
26720;PMS1003;15950;51.112;6.966;2023-05-15T19:23:23;011;010;
26720;PMS1003;15950;51.112;6.966;2023-05-15T19:26:23;013;009;
26720;PMS1003;15950;51.112;6.966;2023-05-15T19:29:23;010;007;
26720;PMS1003;15950;51.112;6.966;2023-05-15T19:32:23;010;008;
26720;PMS1003;15950;51.112;6.966;2023-05-15T19:35:23;010;007;
26720;PMS1003;15950;51.112;6.966;2023-05-15T19:38:23;010;007;
26720;PMS1003;15950;51.112;6.966;2023-05-15T19:41:23;011;008;
26720;PMS1003;15950;51.112;6.966;2023-05-15T19:44:25;010;007;
26720;PMS1003;15950;51.112;6.966;2023-05-15T19:47:23;010;007;
26720;PMS1003;15950;51.112;6.966;2023-05-15T19:50:25;015;011;
26720;PMS1003;15950;51.112;6.966;2023-05-15T19:53:23;010;007;
26720;PMS1003;15950;51.112;6.966;2023-05-15T19:56:23;006;004;
26720;PMS1003;15950;51.112;6.966;2023-05-15T19:59:23;006;004;
26720;PMS1003;15950;51.112;6.966;2023-05-15T20:02:23;008;006;
26720;PMS1003;15950;51.112;6.966;2023-05-15T20:05:23;009;007;
26720;PMS1003;15950;51.112;6.966;2023-05-15T20:08:23;008;007;